createdAt,value
2022-09-06T00:00:56.977Z,13.4
2022-09-06T00:01:56.963Z,13.4
2022-09-06T00:02:57.295Z,13
2022-09-06T00:03:56.993Z,13
2022-09-06T00:04:57.556Z,12.9
2022-09-06T00:05:57.036Z,13
2022-09-06T00:06:57.386Z,13.5
2022-09-06T00:07:56.968Z,12.5
2022-09-06T00:08:56.980Z,12.9
2022-09-06T00:09:57.777Z,13.2
2022-09-06T00:11:00.861Z,13.3
2022-09-06T00:11:56.965Z,13.8
2022-09-06T00:12:56.985Z,13.7
2022-09-06T00:13:57.366Z,13.8
2022-09-06T00:14:56.050Z,12.7
2022-09-06T00:15:57.505Z,13.2
2022-09-06T00:16:56.962Z,12.6
2022-09-06T00:17:57.007Z,13.4
2022-09-06T00:18:56.977Z,12.7
2022-09-06T00:19:56.971Z,13.8
2022-09-06T00:20:56.991Z,12.8
2022-09-06T00:21:56.985Z,14.3
2022-09-06T00:22:56.979Z,13.1
2022-09-06T00:23:57.747Z,12.9
2022-09-06T00:24:56.973Z,13.1
2022-09-06T00:25:57.154Z,13.6
2022-09-06T00:26:57.570Z,13.4
2022-09-06T00:27:56.988Z,13.2
2022-09-06T00:28:57.796Z,13.5
2022-09-06T00:29:56.986Z,12.9
2022-09-06T00:30:57.035Z,13.4
2022-09-06T00:31:56.971Z,12.9
2022-09-06T00:32:57.814Z,12.9
2022-09-06T00:33:56.971Z,13.1
2022-09-06T00:34:57.008Z,13.2
2022-09-06T00:35:57.624Z,13.3
2022-09-06T00:36:57.055Z,13.5
2022-09-06T00:37:56.988Z,13.6
2022-09-06T00:38:56.974Z,13.7
2022-09-06T00:39:57.930Z,13.9
2022-09-06T00:40:56.970Z,14.1
2022-09-06T00:41:57.541Z,14.1
2022-09-06T00:42:56.990Z,14.2
2022-09-06T00:43:57.633Z,14.1
2022-09-06T00:44:56.425Z,14.1
2022-09-06T00:45:57.760Z,14.2
2022-09-06T00:46:56.976Z,14.1
2022-09-06T00:47:57.296Z,14
2022-09-06T00:48:57.454Z,14.1
2022-09-06T00:49:57.866Z,13.8
2022-09-06T00:50:57.132Z,13.9
2022-09-06T00:51:57.026Z,13.8
2022-09-06T00:52:56.981Z,13.9
2022-09-06T00:53:56.980Z,13.7
2022-09-06T00:56:56.977Z,12.9
2022-09-06T00:57:56.979Z,12.3
2022-09-06T00:58:57.161Z,11.9
2022-09-06T00:59:56.985Z,11.4
2022-09-06T01:00:56.975Z,11.1
2022-09-06T01:01:57.552Z,10.8
2022-09-06T01:02:56.974Z,10.7
2022-09-06T01:03:57.675Z,10.2
2022-09-06T01:04:56.974Z,10.5
2022-09-06T01:05:57.717Z,11.2
2022-09-06T01:06:56.992Z,10.3
2022-09-06T01:07:56.988Z,9.9
2022-09-06T01:08:56.975Z,10.7
2022-09-06T01:09:57.868Z,9.9
2022-09-06T01:10:57.595Z,10
2022-09-06T01:11:57.221Z,9.6
2022-09-06T01:12:56.986Z,10.1
2022-09-06T01:13:57.731Z,9.9
2022-09-06T01:14:56.521Z,9.7
2022-09-06T01:15:57.080Z,9.5
2022-09-06T01:16:57.917Z,9.4
2022-09-06T01:17:57.005Z,9.1
2022-09-06T01:18:57.048Z,9.6
2022-09-06T01:19:57.306Z,9.4
2022-09-06T01:20:57.605Z,9.7
2022-09-06T01:21:57.044Z,9.7
2022-09-06T01:22:56.988Z,9.6
2022-09-06T01:23:57.336Z,9.3
2022-09-06T01:24:57.948Z,9.4
2022-09-06T01:25:57.741Z,9.3
2022-09-06T01:26:56.987Z,9
2022-09-06T01:27:57.380Z,8.9
2022-09-06T01:28:57.029Z,8.9
2022-09-06T01:29:57.001Z,9.9
2022-09-06T01:30:57.032Z,10.4
2022-09-06T01:31:57.648Z,9.9
2022-09-06T01:32:56.983Z,9.5
2022-09-06T01:33:57.000Z,9.3
2022-09-06T01:34:57.435Z,9.2
2022-09-06T01:35:56.994Z,9.1
2022-09-06T01:37:09.830Z,8.8
2022-09-06T01:37:56.999Z,9.7
2022-09-06T01:38:57.026Z,8.9
2022-09-06T01:39:57.063Z,8.9
2022-09-06T01:40:57.111Z,8.6
2022-09-06T01:41:57.001Z,9
2022-09-06T01:42:57.158Z,9.1
2022-09-06T01:43:57.177Z,9.2
2022-09-06T01:44:56.790Z,8.9
2022-09-06T01:45:58.015Z,9.1
2022-09-06T01:46:57.005Z,8.7
2022-09-06T01:47:57.679Z,8.6
2022-09-06T01:48:56.996Z,8.5
2022-09-06T01:49:57.005Z,8.6
2022-09-06T01:50:57.551Z,8.4
2022-09-06T01:51:57.004Z,8.2
2022-09-06T01:52:57.626Z,8.4
2022-09-06T01:53:56.991Z,9.1
2022-09-06T01:54:56.993Z,8.8
2022-09-06T01:55:57.646Z,9.1
2022-09-06T01:56:57.014Z,9.2
2022-09-06T01:57:57.370Z,9.9
2022-09-06T01:58:57.005Z,9.3
2022-09-06T01:59:57.007Z,10.3
2022-09-06T02:00:57.501Z,10.5
2022-09-06T02:01:57.147Z,10.2
2022-09-06T02:02:57.895Z,9
2022-09-06T02:03:57.137Z,9
2022-09-06T02:04:57.611Z,9.7
2022-09-06T02:05:57.523Z,8.7
2022-09-06T02:06:57.023Z,9.1
2022-09-06T02:07:57.022Z,9.1
2022-09-06T02:09:57.002Z,9.9
2022-09-06T02:10:57.014Z,9.8
2022-09-06T02:11:57.088Z,10.8
2022-09-06T02:12:57.017Z,11.2
2022-09-06T02:13:57.262Z,11.4
2022-09-06T02:14:56.095Z,11.4
2022-09-06T02:15:57.877Z,10.8
2022-09-06T02:16:57.640Z,11.5
2022-09-06T02:17:57.953Z,11.7
2022-09-06T02:18:57.170Z,11.9
2022-09-06T02:19:57.002Z,11.8
2022-09-06T02:20:57.012Z,10.5
2022-09-06T02:21:57.134Z,10.1
2022-09-06T02:22:57.717Z,9.6
2022-09-06T02:23:57.634Z,9.3
2022-09-06T02:24:57.045Z,9
2022-09-06T02:25:57.137Z,9
2022-09-06T02:26:57.215Z,8.8
2022-09-06T02:27:57.009Z,8.7
2022-09-06T02:28:57.754Z,8.3
2022-09-06T02:29:57.441Z,8.1
2022-09-06T02:30:57.084Z,8
2022-09-06T02:31:57.647Z,8
2022-09-06T02:32:57.848Z,8.2
2022-09-06T02:34:57.005Z,8
2022-09-06T02:35:57.147Z,8.5
2022-09-06T02:36:57.279Z,9.1
2022-09-06T02:37:57.019Z,8.7
2022-09-06T02:38:57.023Z,9.7
2022-09-06T02:39:57.131Z,10.4
2022-09-06T02:40:57.340Z,10.7
2022-09-06T02:41:57.712Z,10.2
2022-09-06T02:42:57.006Z,10.3
2022-09-06T02:43:57.010Z,10.6
2022-09-06T02:44:56.692Z,10.6
2022-09-06T02:45:57.108Z,10.5
2022-09-06T02:46:57.479Z,10.5
2022-09-06T02:47:57.050Z,10.4
2022-09-06T02:48:57.011Z,9.5
2022-09-06T02:49:57.874Z,9.2
2022-09-06T02:50:57.024Z,9.1
2022-09-06T02:51:57.910Z,9
2022-09-06T02:52:57.066Z,8.6
2022-09-06T02:53:57.045Z,8.5
2022-09-06T02:54:57.569Z,8.4
2022-09-06T02:55:57.022Z,8.3
2022-09-06T02:56:57.015Z,8.2
2022-09-06T02:57:57.023Z,8.2
2022-09-06T02:58:57.028Z,8
2022-09-06T02:59:57.808Z,8
2022-09-06T03:00:57.366Z,8
2022-09-06T03:01:57.131Z,7.8
2022-09-06T03:02:57.043Z,7.8
2022-09-06T03:03:57.297Z,7.9
2022-09-06T03:04:57.019Z,7.9
2022-09-06T03:05:57.784Z,7.9
2022-09-06T03:06:57.065Z,7.8
2022-09-06T03:07:57.024Z,7.7
2022-09-06T03:08:57.030Z,7.8
2022-09-06T03:09:57.836Z,7.7
2022-09-06T03:10:56.821Z,7.7
2022-09-06T03:11:57.149Z,7.6
2022-09-06T03:12:57.038Z,7.8
2022-09-06T03:13:57.046Z,7.6
2022-09-06T03:14:56.088Z,7.6
2022-09-06T03:15:57.123Z,7.8
2022-09-06T03:16:57.533Z,7.7
2022-09-06T03:17:57.015Z,7.6
2022-09-06T03:18:57.035Z,7.6
2022-09-06T03:19:57.648Z,7.6
2022-09-06T03:20:57.051Z,7.6
2022-09-06T03:21:57.496Z,7.6
2022-09-06T03:22:57.181Z,7.5
2022-09-06T03:23:57.575Z,7.5
2022-09-06T03:24:57.801Z,7.4
2022-09-06T03:25:57.073Z,7.4
2022-09-06T03:26:57.021Z,7.2
2022-09-06T03:27:57.105Z,7.5
2022-09-06T03:28:57.019Z,8
2022-09-06T03:29:57.967Z,8.6
2022-09-06T03:30:57.171Z,8.8
2022-09-06T03:31:57.029Z,8.5
2022-09-06T03:33:00.799Z,8.1
2022-09-06T03:33:57.036Z,8
2022-09-06T03:34:57.567Z,7.8
2022-09-06T03:35:57.491Z,7.7
2022-09-06T03:36:57.027Z,7.7
2022-09-06T03:37:57.037Z,7.7
2022-09-06T03:38:57.024Z,7.6
2022-09-06T03:39:57.090Z,7.6
2022-09-06T03:40:57.063Z,7.5
2022-09-06T03:41:57.043Z,7.4
2022-09-06T03:42:57.323Z,7.3
2022-09-06T03:43:57.043Z,7.2
2022-09-06T03:44:56.097Z,7.1
2022-09-06T03:45:57.578Z,7
2022-09-06T03:46:57.978Z,6.9
2022-09-06T03:47:57.337Z,6.9
2022-09-06T03:48:57.029Z,6.9
2022-09-06T03:49:57.104Z,7.3
2022-09-06T03:50:57.235Z,7.3
2022-09-06T03:51:57.044Z,8
2022-09-06T03:52:57.561Z,7.5
2022-09-06T03:53:57.824Z,7.4
2022-09-06T03:54:57.040Z,7.5
2022-09-06T03:55:57.694Z,7.4
2022-09-06T03:56:57.040Z,7.5
2022-09-06T03:57:57.112Z,7.6
2022-09-06T03:58:57.045Z,7.7
2022-09-06T03:59:57.040Z,7.7
2022-09-06T04:00:57.103Z,7.7
2022-09-06T04:01:57.362Z,7.7
2022-09-06T04:03:01.491Z,7.6
2022-09-06T04:03:57.042Z,7.5
2022-09-06T04:04:57.046Z,7.6
2022-09-06T04:05:57.040Z,7.8
2022-09-06T04:06:57.257Z,7.7
2022-09-06T04:07:57.042Z,7.7
2022-09-06T04:08:57.581Z,7.6
2022-09-06T04:09:57.175Z,7.6
2022-09-06T04:10:57.750Z,7.7
2022-09-06T04:11:57.130Z,7.7
2022-09-06T04:12:57.051Z,7.8
2022-09-06T04:13:57.157Z,8
2022-09-06T04:14:57.068Z,8.2
2022-09-06T04:15:57.048Z,8
2022-09-06T04:16:57.453Z,7.8
2022-09-06T04:17:57.543Z,7.7
2022-09-06T04:18:57.051Z,7.8
2022-09-06T04:19:57.052Z,7.8
2022-09-06T04:20:57.053Z,7.8
2022-09-06T04:21:57.049Z,7.7
2022-09-06T04:22:57.347Z,7.7
2022-09-06T04:23:57.547Z,7.8
2022-09-06T04:24:57.608Z,7.7
2022-09-06T04:25:57.326Z,7.7
2022-09-06T04:26:57.035Z,7.5
2022-09-06T04:27:57.051Z,7.6
2022-09-06T04:28:57.055Z,7.6
2022-09-06T04:29:57.132Z,7.7
2022-09-06T04:30:59.838Z,7.7
2022-09-06T04:31:57.139Z,8.1
2022-09-06T04:32:57.130Z,8.4
2022-09-06T04:33:56.452Z,8.9
2022-09-06T04:34:56.717Z,9.2
2022-09-06T04:35:57.676Z,9.6
2022-09-06T04:36:57.059Z,9.6
2022-09-06T04:37:57.066Z,9.9
2022-09-06T04:38:57.050Z,9.7
2022-09-06T04:39:57.458Z,9.6
2022-09-06T04:40:57.044Z,9.3
2022-09-06T04:41:56.131Z,9.2
2022-09-06T04:42:57.058Z,8.7
2022-09-06T04:43:57.054Z,8.5
2022-09-06T04:44:56.121Z,8.4
2022-09-06T04:45:57.405Z,8.6
2022-09-06T04:46:57.678Z,8.8
2022-09-06T04:47:57.535Z,8.9
2022-09-06T04:48:57.031Z,8.8
2022-09-06T04:49:57.268Z,8.6
2022-09-06T04:50:57.465Z,8.7
2022-09-06T04:51:57.179Z,8.8
2022-09-06T04:52:57.743Z,8.5
2022-09-06T04:53:57.039Z,8.2
2022-09-06T04:54:57.460Z,8.1
2022-09-06T04:55:57.062Z,8.1
2022-09-06T04:56:57.552Z,8.1
2022-09-06T04:57:57.356Z,7.9
2022-09-06T04:58:57.073Z,7.9
2022-09-06T04:59:57.076Z,7.8
2022-09-06T05:00:57.156Z,7.9
2022-09-06T05:01:57.128Z,7.9
2022-09-06T05:02:57.060Z,7.9
2022-09-06T05:03:57.392Z,7.9
2022-09-06T05:04:57.616Z,7.9
2022-09-06T05:05:57.054Z,7.8
2022-09-06T05:06:57.063Z,7.7
2022-09-06T05:07:57.515Z,7.9
2022-09-06T05:08:57.240Z,7.9
2022-09-06T05:09:57.044Z,8.4
2022-09-06T05:10:57.134Z,8.9
2022-09-06T05:11:57.277Z,9.3
2022-09-06T05:12:57.125Z,9.6
2022-09-06T05:13:57.144Z,9.9
2022-09-06T05:14:56.130Z,10.2
2022-09-06T05:15:57.303Z,10.4
2022-09-06T05:16:57.488Z,10.6
2022-09-06T05:17:57.798Z,10.7
2022-09-06T05:18:57.338Z,10.8
2022-09-06T05:19:57.063Z,10.9
2022-09-06T05:20:57.294Z,11
2022-09-06T05:21:57.065Z,10.9
2022-09-06T05:22:57.257Z,10.8
2022-09-06T05:23:58.815Z,10.9
2022-09-06T05:24:57.052Z,10.9
2022-09-06T05:25:57.776Z,11
2022-09-06T05:26:57.357Z,11
2022-09-06T05:27:57.062Z,11.1
2022-09-06T05:28:57.156Z,10.9
2022-09-06T05:29:57.064Z,11.1
2022-09-06T05:30:57.084Z,11.2
2022-09-06T05:31:57.125Z,11.1
2022-09-06T05:32:57.548Z,11.2
2022-09-06T05:33:57.050Z,11.3
2022-09-06T05:34:57.061Z,11.4
2022-09-06T05:35:57.627Z,11.2
2022-09-06T05:36:57.376Z,11.1
2022-09-06T05:37:57.074Z,11
2022-09-06T05:38:57.066Z,10.9
2022-09-06T05:39:57.316Z,10.9
2022-09-06T05:40:57.874Z,10.8
2022-09-06T05:41:57.059Z,11
2022-09-06T05:42:57.548Z,10.9
2022-09-06T05:43:57.063Z,11
2022-09-06T05:44:56.625Z,11.1
2022-09-06T05:46:57.061Z,11.2
2022-09-06T05:47:57.060Z,11.3
2022-09-06T05:48:57.068Z,11.5
2022-09-06T05:49:58.577Z,11.7
2022-09-06T05:50:57.308Z,11.7
2022-09-06T05:51:57.574Z,11.8
2022-09-06T05:52:57.062Z,11.9
2022-09-06T05:53:57.496Z,11.9
2022-09-06T05:54:57.072Z,12
2022-09-06T05:55:57.582Z,12.1
2022-09-06T05:56:57.789Z,12
2022-09-06T05:57:57.095Z,12.1
2022-09-06T05:58:57.081Z,12.2
2022-09-06T05:59:57.227Z,12.2
2022-09-06T06:00:57.845Z,12.2
2022-09-06T06:01:57.126Z,12.2
2022-09-06T06:02:57.694Z,12.2
2022-09-06T06:03:57.099Z,12.2
2022-09-06T06:04:57.154Z,12.3
2022-09-06T06:05:57.554Z,12.3
2022-09-06T06:06:57.725Z,12.3
2022-09-06T06:07:57.091Z,12.3
2022-09-06T06:08:57.064Z,12.3
2022-09-06T06:09:57.437Z,12.4
2022-09-06T06:10:57.567Z,12.5
2022-09-06T06:11:57.084Z,12.5
2022-09-06T06:12:58.001Z,12.5
2022-09-06T06:13:57.093Z,12.6
2022-09-06T06:14:56.149Z,12.6
2022-09-06T06:15:57.360Z,12.6
2022-09-06T06:16:57.837Z,12.6
2022-09-06T06:17:57.085Z,12.7
2022-09-06T06:18:57.110Z,12.7
2022-09-06T06:19:57.915Z,12.7
2022-09-06T06:20:57.599Z,12.7
2022-09-06T06:21:57.284Z,12.7
2022-09-06T06:22:57.072Z,12.7
2022-09-06T06:23:57.897Z,12.7
2022-09-06T06:24:57.077Z,12.7
2022-09-06T06:25:57.085Z,12.7
2022-09-06T06:26:57.084Z,12.8
2022-09-06T06:27:57.674Z,12.8
2022-09-06T06:28:57.305Z,12.7
2022-09-06T06:29:57.392Z,12.8
2022-09-06T06:30:57.082Z,12.8
2022-09-06T06:31:58.038Z,12.9
2022-09-06T06:32:57.148Z,12.8
2022-09-06T06:33:57.109Z,12.9
2022-09-06T06:34:57.097Z,12.8
2022-09-06T06:35:57.101Z,12.8
2022-09-06T06:36:57.530Z,12.8
2022-09-06T06:37:57.104Z,12.8
2022-09-06T06:38:57.828Z,12.9
2022-09-06T06:39:57.423Z,12.8
2022-09-06T06:41:02.018Z,12.8
2022-09-06T06:41:57.090Z,12.9
2022-09-06T06:42:57.602Z,12.9
2022-09-06T06:43:57.506Z,12.9
2022-09-06T06:44:56.441Z,12.9
2022-09-06T06:45:57.215Z,12.9
2022-09-06T06:46:57.766Z,12.9
2022-09-06T06:47:57.091Z,12.9
2022-09-06T06:48:57.622Z,12.9
2022-09-06T06:49:57.560Z,12.9
2022-09-06T06:50:57.777Z,12.9
2022-09-06T06:51:57.755Z,13
2022-09-06T06:52:57.119Z,12.9
2022-09-06T06:53:57.102Z,12.7
2022-09-06T06:54:57.102Z,12.8
2022-09-06T06:55:57.159Z,12.8
2022-09-06T06:56:57.097Z,12.8
2022-09-06T06:57:57.102Z,12.9
2022-09-06T06:58:57.093Z,12.9
2022-09-06T06:59:57.084Z,12.9
2022-09-06T07:00:57.276Z,12.9
2022-09-06T07:01:57.988Z,13
2022-09-06T07:02:57.913Z,13
2022-09-06T07:03:57.842Z,12.9
2022-09-06T07:04:57.798Z,12.9
2022-09-06T07:06:13.099Z,12.9
2022-09-06T07:07:57.476Z,12.9
2022-09-06T07:08:58.044Z,13
2022-09-06T07:10:57.219Z,13
2022-09-06T07:11:57.596Z,13
2022-09-06T07:12:57.739Z,13.1
2022-09-06T07:13:57.553Z,13
2022-09-06T07:14:56.177Z,13.1
2022-09-06T07:15:57.405Z,13
2022-09-06T07:16:57.105Z,13
2022-09-06T07:17:57.245Z,12.9
2022-09-06T07:18:57.647Z,12.9
2022-09-06T07:20:13.772Z,12.8
2022-09-06T07:21:58.532Z,12.8
2022-09-06T07:24:57.085Z,12.8
2022-09-06T07:25:57.420Z,12.9
2022-09-06T07:27:57.108Z,13
2022-09-06T07:28:57.105Z,13
2022-09-06T07:29:57.613Z,13
2022-09-06T07:30:57.418Z,13
2022-09-06T07:32:12.547Z,12.9
2022-09-06T07:32:57.343Z,12.9
2022-09-06T07:33:57.111Z,12.9
2022-09-06T07:34:57.697Z,12.8
2022-09-06T07:35:57.154Z,12.9
2022-09-06T07:36:57.439Z,12.9
2022-09-06T07:37:57.118Z,13
2022-09-06T07:38:57.102Z,13
2022-09-06T07:39:57.575Z,13
2022-09-06T07:40:57.619Z,13
2022-09-06T07:41:57.417Z,12.9
2022-09-06T07:42:57.107Z,12.9
2022-09-06T07:43:57.521Z,12.7
2022-09-06T07:44:56.170Z,12.9
2022-09-06T07:45:57.445Z,12.8
2022-09-06T07:47:58.045Z,13.1
2022-09-06T07:48:57.111Z,13
2022-09-06T07:50:59.092Z,12.9
2022-09-06T07:51:57.191Z,12.9
2022-09-06T07:53:15.121Z,13
2022-09-06T07:54:13.248Z,13.1
2022-09-06T07:54:57.229Z,13.2
2022-09-06T07:55:57.786Z,13.1
2022-09-06T07:56:57.107Z,13.2
2022-09-06T07:57:57.139Z,13.1
2022-09-06T07:58:57.992Z,13.1
2022-09-06T07:59:57.134Z,13.2
2022-09-06T08:00:57.198Z,13.2
2022-09-06T08:01:57.192Z,13.1
2022-09-06T08:02:57.134Z,13.2
2022-09-06T08:03:57.466Z,13.3
2022-09-06T08:04:57.825Z,13.3
2022-09-06T08:06:12.684Z,13.3
2022-09-06T08:08:58.236Z,13.5
2022-09-06T08:09:57.107Z,13.4
2022-09-06T08:10:57.119Z,13.4
2022-09-06T08:11:57.119Z,13.5
2022-09-06T08:13:52.242Z,13.5
2022-09-06T08:13:57.119Z,13.6
2022-09-06T08:14:56.800Z,13.6
2022-09-06T08:15:57.173Z,13.8
2022-09-06T08:16:57.474Z,13.8
2022-09-06T08:17:57.109Z,13.6
2022-09-06T08:19:57.120Z,13.8
2022-09-06T08:20:57.960Z,13.7
2022-09-06T08:21:57.527Z,13.8
2022-09-06T08:22:57.125Z,13.8
2022-09-06T08:23:57.114Z,13.8
2022-09-06T08:24:57.124Z,13.7
2022-09-06T08:25:57.120Z,13.9
2022-09-06T08:26:57.257Z,13.8
2022-09-06T08:27:57.646Z,14
2022-09-06T08:28:57.134Z,14.1
2022-09-06T08:29:57.151Z,14
2022-09-06T08:30:57.304Z,14
2022-09-06T08:31:57.177Z,14
2022-09-06T08:32:57.111Z,14
2022-09-06T08:33:57.118Z,14
2022-09-06T08:34:57.123Z,14
2022-09-06T08:35:57.144Z,14
2022-09-06T08:36:57.610Z,13.8
2022-09-06T08:37:57.122Z,13.8
2022-09-06T08:38:57.129Z,14.1
2022-09-06T08:39:58.026Z,14.1
2022-09-06T08:40:57.130Z,14.2
2022-09-06T08:41:57.143Z,14.3
2022-09-06T08:42:57.217Z,14.3
2022-09-06T08:44:57.504Z,14.2
2022-09-06T08:45:57.970Z,14.1
2022-09-06T08:46:57.825Z,14.3
2022-09-06T08:47:57.124Z,14.4
2022-09-06T08:48:57.141Z,14.4
2022-09-06T08:49:57.185Z,14.4
2022-09-06T08:50:57.192Z,14.2
2022-09-06T08:51:57.200Z,14.1
2022-09-06T08:53:18.582Z,14.2
2022-09-06T08:53:57.461Z,14.2
2022-09-06T08:54:57.123Z,14.4
2022-09-06T08:55:57.723Z,14.2
2022-09-06T08:56:57.206Z,14.1
2022-09-06T08:57:57.139Z,14.3
2022-09-06T08:58:57.753Z,14.3
2022-09-06T08:59:57.132Z,14.3
2022-09-06T09:00:57.177Z,14.3
2022-09-06T09:01:57.163Z,14.4
2022-09-06T09:02:57.577Z,14.3
2022-09-06T09:03:57.141Z,14.4
2022-09-06T09:04:57.142Z,14.4
2022-09-06T09:05:57.164Z,14.4
2022-09-06T09:06:57.155Z,14.6
2022-09-06T09:07:57.165Z,14.4
2022-09-06T09:08:58.003Z,14.5
2022-09-06T09:09:57.147Z,14.6
2022-09-06T09:10:57.246Z,14.6
2022-09-06T09:11:57.141Z,14.6
2022-09-06T09:12:57.136Z,14.6
2022-09-06T09:13:57.146Z,14.6
2022-09-06T09:14:56.208Z,14.5
2022-09-06T09:15:58.030Z,14.7
2022-09-06T09:16:57.610Z,14.7
2022-09-06T09:17:57.151Z,14.6
2022-09-06T09:18:57.144Z,14.8
2022-09-06T09:19:57.147Z,14.7
2022-09-06T09:20:57.147Z,14.9
2022-09-06T09:21:57.717Z,15.1
2022-09-06T09:22:57.145Z,15
2022-09-06T09:23:57.147Z,15.1
2022-09-06T09:24:57.157Z,15.2
2022-09-06T09:25:57.143Z,15.5
2022-09-06T09:26:57.145Z,15.2
2022-09-06T09:27:57.156Z,15.3
2022-09-06T09:28:57.532Z,15.4
2022-09-06T09:30:57.245Z,15.6
2022-09-06T09:31:57.269Z,15.9
2022-09-06T09:32:57.548Z,15.7
2022-09-06T09:33:57.186Z,15.6
2022-09-06T09:34:57.739Z,15.7
2022-09-06T09:35:57.550Z,15.7
2022-09-06T09:38:04.901Z,16.2
2022-09-06T09:38:57.154Z,15.9
2022-09-06T09:39:57.480Z,15.7
2022-09-06T09:40:57.145Z,15.5
2022-09-06T09:41:57.177Z,15.5
2022-09-06T09:42:57.148Z,15.3
2022-09-06T09:44:00.028Z,15.2
2022-09-06T09:44:56.636Z,15.1
2022-09-06T09:45:57.147Z,15
2022-09-06T09:46:57.215Z,15.7
2022-09-06T09:47:57.144Z,15.3
2022-09-06T09:48:57.242Z,15.5
2022-09-06T09:49:57.285Z,15.5
2022-09-06T09:50:57.169Z,16.1
2022-09-06T09:51:57.148Z,16.3
2022-09-06T09:52:57.159Z,16.5
2022-09-06T09:53:57.203Z,16.6
2022-09-06T09:54:57.561Z,16.5
2022-09-06T09:55:57.162Z,16.5
2022-09-06T09:56:58.057Z,16.7
2022-09-06T09:57:57.152Z,16.4
2022-09-06T09:58:57.797Z,16.3
2022-09-06T09:59:57.149Z,16.1
2022-09-06T10:00:57.194Z,15.8
2022-09-06T10:01:57.159Z,15.8
2022-09-06T10:02:57.630Z,15.6
2022-09-06T10:04:57.359Z,15.6
2022-09-06T10:06:02.147Z,15.7
2022-09-06T10:07:12.601Z,15.8
2022-09-06T10:07:57.152Z,15.8
2022-09-06T10:08:57.171Z,16.2
2022-09-06T10:09:57.280Z,16.8
2022-09-06T10:11:50.125Z,16.7
2022-09-06T10:11:57.474Z,16.4
2022-09-06T10:12:57.905Z,16.2
2022-09-06T10:13:57.172Z,16.1
2022-09-06T10:14:56.891Z,15.9
2022-09-06T10:15:57.291Z,16
2022-09-06T10:16:57.364Z,15.8
2022-09-06T10:17:57.844Z,15.9
2022-09-06T10:18:57.165Z,15.8
2022-09-06T10:19:57.173Z,15.8
2022-09-06T10:21:57.181Z,15.8
2022-09-06T10:22:57.388Z,15.6
2022-09-06T10:24:57.163Z,15.8
2022-09-06T10:25:57.373Z,15.7
2022-09-06T10:26:57.373Z,15.7
2022-09-06T10:28:12.629Z,16.1
2022-09-06T10:28:57.944Z,16.4
2022-09-06T10:29:57.653Z,16.2
2022-09-06T10:30:57.223Z,16.2
2022-09-06T10:31:57.416Z,16.3
2022-09-06T10:32:57.734Z,16.4
2022-09-06T10:33:57.170Z,16.6
2022-09-06T10:34:57.174Z,16.5
2022-09-06T10:35:57.199Z,16.4
2022-09-06T10:36:56.246Z,16.5
2022-09-06T10:37:57.563Z,17.1
2022-09-06T10:39:02.965Z,16.7
2022-09-06T10:39:57.229Z,16.6
2022-09-06T10:40:57.183Z,16.3
2022-09-06T10:41:57.191Z,16.6
2022-09-06T10:42:57.480Z,16.6
2022-09-06T10:43:57.191Z,16.6
2022-09-06T10:44:56.238Z,16.9
2022-09-06T10:45:57.170Z,17
2022-09-06T10:46:57.705Z,16.7
2022-09-06T10:48:50.147Z,17
2022-09-06T10:48:57.179Z,17
2022-09-06T10:49:57.836Z,16.8
2022-09-06T10:50:57.187Z,17
2022-09-06T10:51:57.270Z,17.4
2022-09-06T10:52:57.166Z,17.4
2022-09-06T10:53:57.178Z,17.6
2022-09-06T10:54:57.642Z,17.4
2022-09-06T10:56:00.925Z,17.5
2022-09-06T10:56:57.177Z,17.3
2022-09-06T10:58:25.598Z,17.4
2022-09-06T10:59:57.242Z,17.6
2022-09-06T11:00:57.191Z,17.5
2022-09-06T11:01:57.372Z,17.5
2022-09-06T11:04:00.295Z,17.6
2022-09-06T11:05:57.698Z,17.4
2022-09-06T11:06:57.951Z,17.4
2022-09-06T11:08:58.444Z,17.8
2022-09-06T11:09:57.455Z,17.7
2022-09-06T11:10:57.183Z,17.7
2022-09-06T11:11:57.198Z,17.5
2022-09-06T11:12:57.762Z,17.7
2022-09-06T11:13:57.312Z,17.7
2022-09-06T11:14:56.490Z,17.8
2022-09-06T11:15:57.266Z,17.9
2022-09-06T11:16:57.187Z,17.5
2022-09-06T11:17:57.664Z,18.1
2022-09-06T11:18:57.811Z,18.2
2022-09-06T11:19:57.186Z,18
2022-09-06T11:20:57.367Z,18.2
2022-09-06T11:21:57.224Z,17.9
2022-09-06T11:22:57.463Z,18.3
2022-09-06T11:23:57.702Z,17.8
2022-09-06T11:24:57.184Z,17.8
2022-09-06T11:25:57.194Z,18.1
2022-09-06T11:26:57.198Z,17.8
2022-09-06T11:27:58.233Z,18
2022-09-06T11:28:57.286Z,18.1
2022-09-06T11:29:57.206Z,18.2
2022-09-06T11:30:57.242Z,17.9
2022-09-06T11:32:22.583Z,18
2022-09-06T11:32:57.670Z,17.9
2022-09-06T11:34:01.170Z,17.7
2022-09-06T11:34:57.206Z,18.2
2022-09-06T11:35:57.314Z,18.2
2022-09-06T11:36:57.196Z,18
2022-09-06T11:37:57.193Z,17.9
2022-09-06T11:38:57.201Z,18.4
2022-09-06T11:40:57.774Z,17.9
2022-09-06T11:41:57.512Z,18
2022-09-06T11:42:57.212Z,18
2022-09-06T11:43:57.882Z,18.1
2022-09-06T11:44:56.282Z,17.8
2022-09-06T11:45:57.883Z,17.7
2022-09-06T11:46:57.939Z,17.6
2022-09-06T11:47:57.213Z,17.4
2022-09-06T11:48:57.199Z,17.8
2022-09-06T11:49:57.332Z,17.7
2022-09-06T11:50:57.549Z,17.8
2022-09-06T11:51:57.210Z,17.9
2022-09-06T11:52:57.202Z,17.9
2022-09-06T11:53:57.279Z,17.9
2022-09-06T11:54:57.210Z,18.1
2022-09-06T11:55:57.774Z,17.9
2022-09-06T11:56:58.010Z,17.9
2022-09-06T11:57:57.502Z,18
2022-09-06T11:58:57.226Z,17.8
2022-09-06T11:59:58.013Z,17.9
2022-09-06T12:00:57.228Z,17.8
2022-09-06T12:01:57.216Z,17.7
2022-09-06T12:04:05.852Z,17.6
2022-09-06T12:05:00.285Z,17.6
2022-09-06T12:05:57.901Z,17.7
2022-09-06T12:06:57.224Z,17.7
2022-09-06T12:07:57.213Z,17.7
2022-09-06T12:08:57.719Z,17.6
2022-09-06T12:09:57.215Z,17.8
2022-09-06T12:10:57.214Z,17.9
2022-09-06T12:11:57.355Z,17.8
2022-09-06T12:12:57.730Z,18
2022-09-06T12:13:57.317Z,18.2
2022-09-06T12:14:56.290Z,18.3
2022-09-06T12:15:57.314Z,18.4
2022-09-06T12:16:57.231Z,18.4
2022-09-06T12:17:57.381Z,18.2
2022-09-06T12:18:57.244Z,18.4
2022-09-06T12:19:57.217Z,18.6
2022-09-06T12:20:57.241Z,18.5
2022-09-06T12:21:57.245Z,18.5
2022-09-06T12:22:57.363Z,18.3
2022-09-06T12:23:57.222Z,18.4
2022-09-06T12:24:57.829Z,18.4
2022-09-06T12:25:57.234Z,18.3
2022-09-06T12:26:58.056Z,18.1
2022-09-06T12:27:57.228Z,18.4
2022-09-06T12:28:57.562Z,18.2
2022-09-06T12:29:57.264Z,18.6
2022-09-06T12:30:57.961Z,18.7
2022-09-06T12:31:57.673Z,18.7
2022-09-06T12:32:57.225Z,18.7
2022-09-06T12:33:57.257Z,18.6
2022-09-06T12:35:57.588Z,18.5
2022-09-06T12:36:57.829Z,19.1
2022-09-06T12:37:57.264Z,19.1
2022-09-06T12:38:57.238Z,18.9
2022-09-06T12:39:57.477Z,18.7
2022-09-06T12:40:57.237Z,18.6
2022-09-06T12:41:57.240Z,18.9
2022-09-06T12:42:57.238Z,19.1
2022-09-06T12:43:57.236Z,19
2022-09-06T12:44:56.783Z,19
2022-09-06T12:45:57.286Z,19.1
2022-09-06T12:46:57.229Z,18.8
2022-09-06T12:47:57.242Z,19.1
2022-09-06T12:48:57.296Z,18.9
2022-09-06T12:49:57.234Z,19
2022-09-06T12:50:57.253Z,18.7
2022-09-06T12:51:57.255Z,18.9
2022-09-06T12:52:57.255Z,18.8
2022-09-06T12:53:57.231Z,18.5
2022-09-06T12:54:57.848Z,18.4
2022-09-06T12:55:57.229Z,18.4
2022-09-06T12:56:57.463Z,18.3
2022-09-06T12:57:57.240Z,18.5
2022-09-06T12:58:57.239Z,18.4
2022-09-06T12:59:57.505Z,18.3
2022-09-06T13:00:57.500Z,18.5
2022-09-06T13:01:57.508Z,18.6
2022-09-06T13:02:57.361Z,18.4
2022-09-06T13:03:57.279Z,18.2
2022-09-06T13:04:57.312Z,18.3
2022-09-06T13:05:57.335Z,18.2
2022-09-06T13:06:57.407Z,18.1
2022-09-06T13:07:57.262Z,18.1
2022-09-06T13:08:57.468Z,18.1
2022-09-06T13:09:57.905Z,17.8
2022-09-06T13:10:57.228Z,18
2022-09-06T13:11:57.246Z,17.9
2022-09-06T13:12:57.259Z,17.7
2022-09-06T13:13:57.240Z,17.8
2022-09-06T13:14:56.372Z,17.9
2022-09-06T13:15:57.367Z,17.8
2022-09-06T13:16:57.311Z,17.8
2022-09-06T13:17:57.243Z,18.1
2022-09-06T13:18:57.237Z,18.1
2022-09-06T13:19:57.253Z,18.2
2022-09-06T13:20:57.257Z,18
2022-09-06T13:21:57.248Z,18.2
2022-09-06T13:22:57.529Z,18.2
2022-09-06T13:23:57.634Z,18.2
2022-09-06T13:24:57.273Z,18.4
2022-09-06T13:25:57.252Z,18.7
2022-09-06T13:26:58.055Z,18.7
2022-09-06T13:27:58.199Z,18.5
2022-09-06T13:28:57.347Z,18.9
2022-09-06T13:29:57.737Z,18.9
2022-09-06T13:30:57.313Z,18.9
2022-09-06T13:31:57.251Z,18.8
2022-09-06T13:32:57.753Z,18.7
2022-09-06T13:33:57.256Z,18.9
2022-09-06T13:34:57.258Z,18.7
2022-09-06T13:35:57.263Z,18.6
2022-09-06T13:36:57.266Z,18.6
2022-09-06T13:37:57.253Z,18.6
2022-09-06T13:38:57.261Z,18.4
2022-09-06T13:39:58.043Z,18.1
2022-09-06T13:41:16.332Z,18.2
2022-09-06T13:41:57.262Z,18.5
2022-09-06T13:42:57.297Z,18.4
2022-09-06T13:43:57.946Z,18.7
2022-09-06T13:45:01.265Z,18.8
2022-09-06T13:45:57.326Z,18.6
2022-09-06T13:46:57.537Z,18.7
2022-09-06T13:48:13.221Z,18.7
2022-09-06T13:48:57.258Z,18.6
2022-09-06T13:49:57.271Z,18.9
2022-09-06T13:50:57.265Z,18.9
2022-09-06T13:51:57.674Z,19.2
2022-09-06T13:52:57.270Z,18.8
2022-09-06T13:53:57.997Z,18.6
2022-09-06T13:54:57.274Z,19.2
2022-09-06T13:55:57.251Z,19.1
2022-09-06T13:56:57.739Z,19.2
2022-09-06T13:57:57.911Z,19.1
2022-09-06T13:58:57.652Z,19
2022-09-06T13:59:57.504Z,18.8
2022-09-06T14:00:57.478Z,18.6